createdAt,value
2023-03-02T00:02:25.637Z,102147.50
2023-03-02T00:04:59.010Z,102150.63
2023-03-02T00:07:34.818Z,102150.63
2023-03-02T00:10:07.891Z,102145.91
2023-03-02T00:12:40.572Z,102141.78
2023-03-02T00:15:13.151Z,102151.34
2023-03-02T00:17:45.707Z,102146.72
2023-03-02T00:20:18.516Z,102142.91
2023-03-02T00:22:51.215Z,102145.22
2023-03-02T00:25:23.728Z,102139.75
2023-03-02T00:27:56.243Z,102144.94
2023-03-02T00:30:28.814Z,102142.28
2023-03-02T00:33:01.334Z,102138.91
2023-03-02T00:35:39.620Z,102147.25
2023-03-02T00:38:12.541Z,102154.06
2023-03-02T00:40:47.008Z,102147.00
2023-03-02T00:43:21.981Z,102152.59
2023-03-02T00:45:55.560Z,102157.19
2023-03-02T00:48:28.043Z,102146.78
2023-03-02T00:51:01.551Z,102148.56
2023-03-02T00:53:36.536Z,102151.31
2023-03-02T00:56:10.929Z,102144.31
2023-03-02T00:58:43.541Z,102140.84
2023-03-02T01:01:18.502Z,102147.88
2023-03-02T01:03:51.516Z,102139.06
2023-03-02T01:06:24.028Z,102150.16
2023-03-02T01:08:56.529Z,102139.00
2023-03-02T01:11:29.068Z,102140.84
2023-03-02T01:14:01.589Z,102128.78
2023-03-02T01:16:34.480Z,102132.56
2023-03-02T01:19:08.000Z,102130.56
2023-03-02T01:21:41.564Z,102116.78
2023-03-02T01:24:14.144Z,102126.09
2023-03-02T01:26:46.643Z,102128.78
2023-03-02T01:29:19.678Z,102127.88
2023-03-02T01:31:52.296Z,102124.22
2023-03-02T01:34:24.980Z,102119.00
2023-03-02T01:36:57.573Z,102117.44
2023-03-02T01:39:30.109Z,102118.25
2023-03-02T01:42:02.732Z,102112.28
2023-03-02T01:44:52.495Z,102107.50
2023-03-02T01:47:31.748Z,102106.25
2023-03-02T01:50:20.752Z,102102.63
2023-03-02T01:52:55.496Z,102099.75
2023-03-02T01:55:33.895Z,102112.13
2023-03-02T01:58:08.132Z,102109.53
2023-03-02T02:00:41.900Z,102103.31
2023-03-02T02:03:21.087Z,102091.13
2023-03-02T02:06:22.144Z,102103.16
2023-03-02T02:08:58.191Z,102092.97
2023-03-02T02:11:31.493Z,102092.28
2023-03-02T02:14:05.196Z,102095.22
2023-03-02T02:16:39.219Z,102106.06
2023-03-02T02:19:45.954Z,102096.53
2023-03-02T02:22:32.201Z,102095.41
2023-03-02T02:25:39.869Z,102097.47
2023-03-02T02:28:21.722Z,102088.84
2023-03-02T02:31:13.339Z,102083.97
2023-03-02T02:33:52.865Z,102090.28
2023-03-02T02:36:38.653Z,102076.25
2023-03-02T02:39:21.879Z,102080.56
2023-03-02T02:41:57.559Z,102081.53
2023-03-02T02:44:31.753Z,102069.41
2023-03-02T02:47:17.229Z,102078.72
2023-03-02T02:49:54.198Z,102067.69
2023-03-02T02:52:28.891Z,102076.19
2023-03-02T02:55:02.732Z,102073.31
2023-03-02T02:57:35.385Z,102073.78
2023-03-02T03:00:20.031Z,102076.03
2023-03-02T03:03:05.058Z,102077.09
2023-03-02T03:05:37.685Z,102076.28
2023-03-02T03:08:30.862Z,102077.53
2023-03-02T03:11:03.727Z,102077.63
2023-03-02T03:13:38.435Z,102075.66
2023-03-02T03:16:16.400Z,102072.91
2023-03-02T03:18:51.213Z,102065.19
2023-03-02T03:21:23.707Z,102066.38
2023-03-02T03:23:56.263Z,102071.72
2023-03-02T03:26:29.359Z,102061.75
2023-03-02T03:29:02.795Z,102061.94
2023-03-02T03:31:35.704Z,102060.75
2023-03-02T03:34:10.860Z,102055.63
2023-03-02T03:36:43.710Z,102066.44
2023-03-02T03:39:18.173Z,102058.91
2023-03-02T03:41:50.791Z,102052.38
2023-03-02T03:44:23.496Z,102058.06
2023-03-02T03:46:56.242Z,102059.59
2023-03-02T03:49:28.931Z,102065.00
2023-03-02T03:52:01.400Z,102055.66
2023-03-02T03:54:34.056Z,102066.19
2023-03-02T03:57:06.776Z,102059.50
2023-03-02T03:59:39.329Z,102071.47
2023-03-02T04:02:12.196Z,102070.81
2023-03-02T04:04:46.212Z,102068.44
2023-03-02T04:07:19.116Z,102070.06
2023-03-02T04:10:03.534Z,102068.66
2023-03-02T04:12:40.150Z,102064.34
2023-03-02T04:15:16.252Z,102062.28
2023-03-02T04:17:49.075Z,102066.75
2023-03-02T04:20:24.080Z,102059.06
2023-03-02T04:22:58.715Z,102069.09
2023-03-02T04:25:31.490Z,102066.50
2023-03-02T04:28:04.193Z,102063.63
2023-03-02T04:30:36.770Z,102058.56
2023-03-02T04:33:09.320Z,102067.31
2023-03-02T04:35:41.879Z,102054.91
2023-03-02T04:38:15.139Z,102068.53
2023-03-02T04:40:47.783Z,102061.31
2023-03-02T04:43:20.284Z,102061.84
2023-03-02T04:45:54.375Z,102057.44
2023-03-02T04:48:27.074Z,102056.34
2023-03-02T04:50:59.603Z,102061.31
2023-03-02T04:53:32.134Z,102065.69
2023-03-02T04:56:05.044Z,102057.91
2023-03-02T04:58:37.538Z,102054.03
2023-03-02T05:01:12.233Z,102057.25
2023-03-02T05:03:45.267Z,102054.94
2023-03-02T05:06:18.512Z,102060.72
2023-03-02T05:08:53.042Z,102065.94
2023-03-02T05:11:26.281Z,102066.00
2023-03-02T05:14:03.575Z,102065.63
2023-03-02T05:16:40.373Z,102070.59
2023-03-02T05:19:13.336Z,102071.19
2023-03-02T05:21:46.157Z,102067.19
2023-03-02T05:24:18.901Z,102064.38
2023-03-02T05:26:51.500Z,102070.84
2023-03-02T05:29:24.039Z,102070.16
2023-03-02T05:31:57.118Z,102062.38
2023-03-02T05:34:29.774Z,102070.75
2023-03-02T05:37:02.303Z,102067.63
2023-03-02T05:39:34.821Z,102070.91
2023-03-02T05:42:07.404Z,102062.78
2023-03-02T05:44:40.051Z,102066.16
2023-03-02T05:47:12.588Z,102072.94
2023-03-02T05:49:45.184Z,102067.94
2023-03-02T05:52:17.717Z,102065.13
2023-03-02T05:54:50.273Z,102064.84
2023-03-02T05:57:22.863Z,102065.84
2023-03-02T05:59:55.396Z,102064.38
2023-03-02T06:02:28.054Z,102060.00
2023-03-02T06:05:00.597Z,102063.66
2023-03-02T06:07:33.141Z,102061.84
2023-03-02T06:10:07.501Z,102062.53
2023-03-02T06:12:40.746Z,102054.28
2023-03-02T06:15:13.541Z,102059.28
2023-03-02T06:17:46.073Z,102060.44
2023-03-02T06:20:18.757Z,102065.50
2023-03-02T06:22:51.571Z,102055.03
2023-03-02T06:25:25.345Z,102069.06
2023-03-02T06:27:58.056Z,102068.59
2023-03-02T06:30:30.615Z,102068.91
2023-03-02T06:33:03.310Z,102069.38
2023-03-02T06:35:35.986Z,102070.31
2023-03-02T06:38:08.574Z,102072.09
2023-03-02T06:40:41.098Z,102080.06
2023-03-02T06:43:14.822Z,102091.13
2023-03-02T06:45:47.504Z,102079.09
2023-03-02T06:48:20.055Z,102091.94
2023-03-02T06:50:52.602Z,102086.88
2023-03-02T06:53:25.243Z,102083.31
2023-03-02T06:55:57.753Z,102085.31
2023-03-02T06:58:30.334Z,102092.34
2023-03-02T07:01:03.723Z,102094.53
2023-03-02T07:03:36.941Z,102094.22
2023-03-02T07:06:12.352Z,102098.97
2023-03-02T07:08:45.756Z,102088.47
2023-03-02T07:11:18.452Z,102093.00
2023-03-02T07:13:51.325Z,102095.09
2023-03-02T07:16:23.950Z,102095.44
2023-03-02T07:18:56.871Z,102097.69
2023-03-02T07:21:29.601Z,102099.31
2023-03-02T07:24:02.145Z,102102.03
2023-03-02T07:26:34.696Z,102099.50
2023-03-02T07:29:07.267Z,102100.13
2023-03-02T07:31:39.770Z,102101.44
2023-03-02T07:34:12.276Z,102110.34
2023-03-02T07:36:44.812Z,102101.03
2023-03-02T07:39:18.078Z,102107.84
2023-03-02T07:41:50.752Z,102105.50
2023-03-02T07:44:23.301Z,102105.56
2023-03-02T07:46:56.633Z,102096.09
2023-03-02T07:49:29.231Z,102090.06
2023-03-02T07:52:03.756Z,102095.91
2023-03-02T07:54:36.458Z,102097.34
2023-03-02T07:57:08.998Z,102106.03
2023-03-02T07:59:42.799Z,102102.63
2023-03-02T08:02:18.104Z,102106.16
2023-03-02T08:04:52.307Z,102103.41
2023-03-02T08:07:24.928Z,102099.41
2023-03-02T08:09:58.015Z,102093.47
2023-03-02T08:12:30.858Z,102098.19
2023-03-02T08:15:05.006Z,102097.34
2023-03-02T08:17:37.745Z,102098.84
2023-03-02T08:20:10.927Z,102097.94
2023-03-02T08:22:43.458Z,102095.50
2023-03-02T08:25:16.142Z,102104.66
2023-03-02T08:27:48.814Z,102094.72
2023-03-02T08:30:21.450Z,102095.97
2023-03-02T08:32:53.948Z,102098.91
2023-03-02T08:35:26.772Z,102100.47
2023-03-02T08:37:59.724Z,102100.06
2023-03-02T08:40:32.625Z,102095.25
2023-03-02T08:43:07.729Z,102101.53
2023-03-02T08:45:40.567Z,102096.63
2023-03-02T08:48:13.165Z,102100.16
2023-03-02T08:50:57.560Z,102102.63
2023-03-02T08:53:34.660Z,102099.31
2023-03-02T08:56:38.370Z,102095.59
2023-03-02T08:59:13.602Z,102099.03
2023-03-02T09:01:46.191Z,102086.81
2023-03-02T09:04:19.064Z,102088.00
2023-03-02T09:06:51.724Z,102084.69
2023-03-02T09:09:24.244Z,102088.00
2023-03-02T09:11:56.752Z,102079.06
2023-03-02T09:14:29.314Z,102076.94
2023-03-02T09:17:01.987Z,102072.34
2023-03-02T09:19:43.284Z,102076.06
2023-03-02T09:22:17.495Z,102070.34
2023-03-02T09:24:50.162Z,102071.56
2023-03-02T09:27:22.699Z,102076.88
2023-03-02T09:29:55.450Z,102077.34
2023-03-02T09:32:28.102Z,102073.81
2023-03-02T09:35:00.865Z,102071.31
2023-03-02T09:37:35.106Z,102068.34
2023-03-02T09:40:28.962Z,102068.75
2023-03-02T09:43:16.352Z,102068.06
2023-03-02T09:45:59.441Z,102069.16
2023-03-02T09:48:38.651Z,102073.06
2023-03-02T09:51:39.961Z,102065.59
2023-03-02T09:54:21.071Z,102065.75
2023-03-02T09:56:59.816Z,102067.19
2023-03-02T09:59:45.168Z,102059.53
2023-03-02T10:02:40.860Z,102055.91
2023-03-02T10:05:31.130Z,102048.66
2023-03-02T10:08:03.834Z,102058.53
2023-03-02T10:10:53.115Z,102063.69
2023-03-02T10:13:47.655Z,102053.47
2023-03-02T10:17:09.620Z,102063.88
2023-03-02T10:19:50.397Z,102058.03
2023-03-02T10:22:38.211Z,102054.19
2023-03-02T10:25:50.445Z,102062.38
2023-03-02T10:28:32.062Z,102057.38
2023-03-02T10:31:25.056Z,102052.31
2023-03-02T10:33:59.163Z,102057.88
2023-03-02T10:36:39.662Z,102048.63
2023-03-02T10:39:17.765Z,102055.78
2023-03-02T10:41:59.112Z,102051.34
2023-03-02T10:44:38.137Z,102051.78
2023-03-02T10:47:25.375Z,102046.72
2023-03-02T10:49:58.189Z,102038.25
2023-03-02T10:52:30.757Z,102037.41
2023-03-02T10:55:07.352Z,102037.53
2023-03-02T10:57:46.273Z,102042.78
2023-03-02T11:00:27.641Z,102045.44
2023-03-02T11:03:05.673Z,102039.38
2023-03-02T11:05:44.347Z,102032.34
2023-03-02T11:08:21.345Z,102035.16
2023-03-02T11:11:01.624Z,102032.34
2023-03-02T11:13:38.799Z,102024.41
2023-03-02T11:16:17.213Z,102017.59
2023-03-02T11:18:58.777Z,102017.38
2023-03-02T11:22:36.392Z,102015.19
2023-03-02T11:25:27.956Z,102023.06
2023-03-02T11:28:22.463Z,102019.16
2023-03-02T11:30:59.711Z,102017.66
2023-03-02T11:33:48.913Z,102016.97
2023-03-02T11:36:30.185Z,102015.13
2023-03-02T11:39:09.083Z,102011.84
2023-03-02T11:41:41.989Z,102000.53
2023-03-02T11:44:20.454Z,102004.19
2023-03-02T11:47:01.369Z,102001.56
2023-03-02T11:50:03.665Z,102003.38
2023-03-02T11:52:39.569Z,102005.09
2023-03-02T11:55:12.030Z,102003.22
2023-03-02T11:57:50.373Z,101995.53
2023-03-02T12:00:38.841Z,101998.88
2023-03-02T12:03:17.353Z,101994.63
2023-03-02T12:05:52.550Z,101991.31
2023-03-02T12:08:24.963Z,101990.53
2023-03-02T12:11:18.652Z,101989.75
2023-03-02T12:14:05.902Z,101986.03
2023-03-02T12:16:41.733Z,101989.63
2023-03-02T12:19:17.474Z,101990.78
2023-03-02T12:22:02.223Z,101980.81
2023-03-02T12:24:39.073Z,101983.63
2023-03-02T12:27:20.817Z,101986.47
2023-03-02T12:30:26.915Z,101974.91
2023-03-02T12:33:22.401Z,101989.09
2023-03-02T12:36:12.352Z,101973.34
2023-03-02T12:39:05.092Z,101980.50
2023-03-02T12:42:04.270Z,101976.47
2023-03-02T12:45:20.236Z,101966.72
2023-03-02T12:48:04.676Z,101974.69
2023-03-02T12:50:40.811Z,101967.59
2023-03-02T12:53:19.936Z,101967.78
2023-03-02T12:55:52.520Z,101962.53
2023-03-02T12:58:29.063Z,101969.56
2023-03-02T13:01:03.846Z,101958.09
2023-03-02T13:03:48.030Z,101963.44
2023-03-02T13:06:23.018Z,101964.34
2023-03-02T13:08:59.232Z,101958.34
2023-03-02T13:11:36.866Z,101952.06
2023-03-02T13:14:22.163Z,101954.81
2023-03-02T13:17:05.548Z,101943.47
2023-03-02T13:19:38.217Z,101940.84
2023-03-02T13:22:12.339Z,101937.34
2023-03-02T13:24:55.701Z,101935.50
2023-03-02T13:27:29.978Z,101929.53
2023-03-02T13:30:32.835Z,101936.50
2023-03-02T13:33:22.978Z,101919.81
2023-03-02T13:35:56.701Z,101926.88
2023-03-02T13:38:38.544Z,101916.38
2023-03-02T13:41:24.292Z,101918.16
2023-03-02T13:44:16.824Z,101908.53
2023-03-02T13:46:49.433Z,101905.94
2023-03-02T13:49:36.103Z,101911.09
2023-03-02T13:52:27.118Z,101904.09
2023-03-02T13:54:59.660Z,101903.22
2023-03-02T13:57:33.112Z,101905.94
2023-03-02T14:00:13.750Z,101898.03
2023-03-02T14:02:48.608Z,101891.88
2023-03-02T14:05:27.028Z,101890.06
2023-03-02T14:08:00.927Z,101900.72
2023-03-02T14:10:33.504Z,101885.81
2023-03-02T14:13:13.648Z,101889.31
2023-03-02T14:15:51.162Z,101887.53
2023-03-02T14:18:39.586Z,101894.50
2023-03-02T14:21:19.784Z,101890.13
2023-03-02T14:23:53.904Z,101888.38
2023-03-02T14:26:43.442Z,101889.31
2023-03-02T14:29:27.941Z,101890.19
2023-03-02T14:32:08.880Z,101888.47
2023-03-02T14:34:43.145Z,101888.47
2023-03-02T14:37:21.571Z,101882.31
2023-03-02T14:39:55.617Z,101882.28
2023-03-02T14:42:28.200Z,101882.28
2023-03-02T14:45:00.721Z,101878.78
2023-03-02T14:47:33.232Z,101876.13
2023-03-02T14:50:06.545Z,101876.13
2023-03-02T14:52:55.283Z,101867.34
2023-03-02T14:55:31.945Z,101860.28
2023-03-02T14:58:16.487Z,101869.09
2023-03-02T15:00:49.089Z,101870.84
2023-03-02T15:03:25.588Z,101862.94
2023-03-02T15:06:01.739Z,101868.22
2023-03-02T15:08:34.675Z,101873.50
2023-03-02T15:11:07.223Z,101866.47
2023-03-02T15:13:39.696Z,101855.88
2023-03-02T15:16:12.585Z,101855.00
2023-03-02T15:18:45.469Z,101855.00
2023-03-02T15:21:24.283Z,101855.88
2023-03-02T15:23:56.885Z,101856.75
2023-03-02T15:26:29.482Z,101847.06
2023-03-02T15:29:02.305Z,101847.94
2023-03-02T15:31:35.212Z,101846.19
2023-03-02T15:34:08.198Z,101844.41
2023-03-02T15:36:40.776Z,101843.53
2023-03-02T15:39:14.723Z,101841.78
2023-03-02T15:41:47.288Z,101843.56
2023-03-02T15:44:23.853Z,101846.19
2023-03-02T15:46:59.865Z,101852.31
2023-03-02T15:49:32.901Z,101854.09
2023-03-02T15:52:06.039Z,101840.91
2023-03-02T15:54:40.352Z,101849.69
2023-03-02T15:57:12.893Z,101843.53
2023-03-02T15:59:46.280Z,101840.88
2023-03-02T16:02:18.896Z,101844.41
2023-03-02T16:04:51.428Z,101847.03
2023-03-02T16:07:23.956Z,101851.38
2023-03-02T16:09:56.666Z,101846.09
2023-03-02T16:12:29.240Z,101847.88
2023-03-02T16:15:01.774Z,101846.09
2023-03-02T16:17:34.362Z,101846.09
2023-03-02T16:20:07.305Z,101850.50
2023-03-02T16:22:39.858Z,101850.47
2023-03-02T16:25:12.671Z,101846.09
2023-03-02T16:27:47.501Z,101857.50
2023-03-02T16:30:23.034Z,101865.44
2023-03-02T16:33:05.795Z,101864.56
2023-03-02T16:35:38.611Z,101865.47
2023-03-02T16:38:11.508Z,101856.72
2023-03-02T16:40:44.036Z,101867.28
2023-03-02T16:43:16.617Z,101862.91
2023-03-02T16:45:50.126Z,101866.38
2023-03-02T16:48:23.173Z,101867.31
2023-03-02T16:50:57.382Z,101876.88
2023-03-02T16:53:29.884Z,101874.22
2023-03-02T16:56:02.920Z,101881.19
2023-03-02T16:58:38.269Z,101886.31
2023-03-02T17:01:15.348Z,101884.56
2023-03-02T17:03:50.653Z,101894.88
2023-03-02T17:06:24.512Z,101899.09
2023-03-02T17:08:57.034Z,101893.06
2023-03-02T17:11:31.294Z,101895.53
2023-03-02T17:14:03.819Z,101895.53
2023-03-02T17:16:36.330Z,101901.81
2023-03-02T17:19:08.869Z,101912.19
2023-03-02T17:21:41.478Z,101919.75
2023-03-02T17:24:14.037Z,101910.19
2023-03-02T17:26:47.182Z,101924.16
2023-03-02T17:29:19.828Z,101926.69
2023-03-02T17:31:53.246Z,101921.22
2023-03-02T17:34:30.552Z,101927.47
2023-03-02T17:37:03.106Z,101932.47
2023-03-02T17:39:36.312Z,101941.88
2023-03-02T17:42:08.956Z,101950.78
2023-03-02T17:44:41.802Z,101949.97
2023-03-02T17:47:15.713Z,101948.97
2023-03-02T17:49:48.423Z,101961.94
2023-03-02T17:52:21.785Z,101959.94
2023-03-02T17:54:54.330Z,101961.72
2023-03-02T17:57:27.983Z,101966.97
2023-03-02T18:00:00.518Z,101967.66
2023-03-02T18:02:34.266Z,101972.13
2023-03-02T18:05:09.963Z,101972.19
2023-03-02T18:07:42.533Z,101974.44
2023-03-02T18:10:15.185Z,101981.47
2023-03-02T18:12:48.542Z,101982.97
2023-03-02T18:15:21.232Z,101982.03
2023-03-02T18:17:54.036Z,101990.72
2023-03-02T18:20:26.833Z,101990.00
2023-03-02T18:22:59.925Z,102000.25
2023-03-02T18:25:32.719Z,102005.59
2023-03-02T18:28:05.912Z,102008.81
2023-03-02T18:30:38.646Z,102007.03
2023-03-02T18:33:11.623Z,102010.34
2023-03-02T18:35:44.393Z,102016.69
2023-03-02T18:38:16.905Z,102019.25
2023-03-02T18:40:49.625Z,102022.84
2023-03-02T18:43:22.260Z,102025.06
2023-03-02T18:45:54.851Z,102025.41
2023-03-02T18:48:28.580Z,102034.25
2023-03-02T18:51:01.070Z,102037.22
2023-03-02T18:53:34.017Z,102035.44
2023-03-02T18:56:06.823Z,102035.44
2023-03-02T18:58:39.775Z,102038.91
2023-03-02T19:01:12.661Z,102037.53
2023-03-02T19:03:45.987Z,102042.75
2023-03-02T19:06:20.473Z,102042.91
2023-03-02T19:08:52.992Z,102042.47
2023-03-02T19:11:25.612Z,102053.88
2023-03-02T19:13:58.131Z,102059.19
2023-03-02T19:16:30.749Z,102058.19
2023-03-02T19:19:03.450Z,102064.97
2023-03-02T19:21:36.046Z,102067.44
2023-03-02T19:24:08.706Z,102067.81
2023-03-02T19:26:41.258Z,102063.00
2023-03-02T19:29:13.798Z,102060.81
2023-03-02T19:31:46.363Z,102064.63
2023-03-02T19:34:18.955Z,102068.97
2023-03-02T19:36:51.568Z,102070.56
2023-03-02T19:39:24.059Z,102068.75
2023-03-02T19:41:56.584Z,102076.28
2023-03-02T19:44:29.088Z,102075.38
2023-03-02T19:47:01.637Z,102076.03
2023-03-02T19:49:34.271Z,102078.31
2023-03-02T19:52:06.820Z,102081.56
2023-03-02T19:54:39.306Z,102078.84
2023-03-02T19:57:11.934Z,102083.78
2023-03-02T19:59:44.510Z,102077.69
2023-03-02T20:02:18.439Z,102084.66
2023-03-02T20:04:52.045Z,102080.97
2023-03-02T20:07:24.588Z,102076.47
2023-03-02T20:09:57.231Z,102083.25
2023-03-02T20:12:29.795Z,102084.50
2023-03-02T20:15:04.691Z,102098.47
2023-03-02T20:17:37.221Z,102088.88
2023-03-02T20:20:12.480Z,102088.09
2023-03-02T20:22:45.465Z,102086.84
2023-03-02T20:25:19.765Z,102078.88
2023-03-02T20:27:53.119Z,102088.78
2023-03-02T20:30:32.883Z,102095.22
2023-03-02T20:33:08.374Z,102094.69
2023-03-02T20:35:45.133Z,102097.16
2023-03-02T20:38:36.461Z,102097.97
2023-03-02T20:41:11.726Z,102105.88
2023-03-02T20:43:44.970Z,102104.72
2023-03-02T20:46:25.207Z,102108.59
2023-03-02T20:48:58.998Z,102114.09
2023-03-02T20:51:31.891Z,102113.50
2023-03-02T20:54:05.700Z,102115.28
2023-03-02T20:56:38.332Z,102109.72
2023-03-02T20:59:10.916Z,102110.66
2023-03-02T21:01:43.763Z,102111.72
2023-03-02T21:04:16.752Z,102112.34
2023-03-02T21:06:50.213Z,102116.78
2023-03-02T21:09:22.814Z,102115.22
2023-03-02T21:11:58.041Z,102119.78
2023-03-02T21:14:33.269Z,102110.41
2023-03-02T21:17:06.940Z,102121.91
2023-03-02T21:19:39.459Z,102128.66
2023-03-02T21:22:12.011Z,102129.31
2023-03-02T21:24:44.566Z,102121.88
2023-03-02T21:27:17.103Z,102123.72
2023-03-02T21:29:49.685Z,102117.84
2023-03-02T21:32:22.273Z,102115.09
2023-03-02T21:34:54.874Z,102121.75
2023-03-02T21:37:27.483Z,102119.34
2023-03-02T21:40:00.081Z,102111.59
2023-03-02T21:42:32.682Z,102110.25
2023-03-02T21:45:07.615Z,102107.66
2023-03-02T21:47:43.579Z,102105.41
2023-03-02T21:50:23.520Z,102109.03
2023-03-02T21:52:59.148Z,102111.19
2023-03-02T21:55:32.858Z,102107.19
2023-03-02T21:58:06.101Z,102107.63
2023-03-02T22:00:40.357Z,102108.34
2023-03-02T22:03:14.253Z,102111.19
2023-03-02T22:05:46.856Z,102104.44
2023-03-02T22:08:21.515Z,102108.78
2023-03-02T22:10:54.200Z,102110.75
2023-03-02T22:13:34.295Z,102112.50
2023-03-02T22:16:23.263Z,102107.00
2023-03-02T22:18:59.641Z,102124.78
2023-03-02T22:21:36.488Z,102112.28
2023-03-02T22:24:08.847Z,102110.09
2023-03-02T22:26:57.627Z,102109.97
2023-03-02T22:29:42.700Z,102117.78
2023-03-02T22:32:17.889Z,102113.28
2023-03-02T22:34:54.196Z,102109.75
2023-03-02T22:37:34.449Z,102107.25
2023-03-02T22:40:29.523Z,102110.69
2023-03-02T22:43:11.216Z,102116.97
2023-03-02T22:45:43.836Z,102110.47
2023-03-02T22:48:22.921Z,102115.53
2023-03-02T22:50:55.427Z,102110.81
2023-03-02T22:53:31.580Z,102118.31
2023-03-02T22:56:34.457Z,102121.75
2023-03-02T22:59:24.700Z,102111.31
2023-03-02T23:02:06.193Z,102109.56
2023-03-02T23:04:39.465Z,102113.91
2023-03-02T23:07:18.588Z,102119.19
2023-03-02T23:09:51.182Z,102129.63
2023-03-02T23:12:27.560Z,102117.41
2023-03-02T23:15:00.134Z,102119.97
2023-03-02T23:17:39.320Z,102124.81
2023-03-02T23:20:15.504Z,102130.63
2023-03-02T23:22:49.970Z,102132.41
2023-03-02T23:25:22.652Z,102122.28
2023-03-02T23:27:55.229Z,102122.63
2023-03-02T23:30:27.808Z,102123.72
2023-03-02T23:33:00.405Z,102121.22
2023-03-02T23:35:33.222Z,102122.88
2023-03-02T23:38:05.751Z,102119.78
2023-03-02T23:40:38.559Z,102113.56
2023-03-02T23:43:11.079Z,102109.19
2023-03-02T23:45:43.585Z,102110.97
2023-03-02T23:48:17.149Z,102109.84
2023-03-02T23:50:49.768Z,102113.63
2023-03-02T23:53:22.246Z,102114.56
2023-03-02T23:55:55.340Z,102119.31
2023-03-02T23:58:27.855Z,102119.06
